createdAt,value
2019-01-25T00:00:38.940Z,67.52
2019-01-25T00:05:46.018Z,67.67
2019-01-25T00:10:51.754Z,68.06
2019-01-25T00:15:57.627Z,68.32
2019-01-25T00:21:03.370Z,68.45
2019-01-25T00:26:09.056Z,68.38
2019-01-25T00:31:14.930Z,68.34
2019-01-25T00:36:20.755Z,68.92
2019-01-25T00:41:26.718Z,68.87
2019-01-25T00:46:33.339Z,68.67
2019-01-25T00:51:39.589Z,68.87
2019-01-25T00:56:45.335Z,68.54
2019-01-25T01:01:51.057Z,68.46
2019-01-25T01:06:57.292Z,68.82
2019-01-25T01:12:03.679Z,69.24
2019-01-25T01:17:10.548Z,68.86
2019-01-25T01:22:16.262Z,68.71
2019-01-25T01:27:22.243Z,68.70
2019-01-25T01:32:28.568Z,68.80
2019-01-25T01:37:34.827Z,68.78
2019-01-25T01:42:40.893Z,68.93
2019-01-25T01:47:46.781Z,68.69
2019-01-25T01:52:52.515Z,68.50
2019-01-25T01:57:58.307Z,68.39
2019-01-25T02:03:04.370Z,68.26
2019-01-25T02:08:10.486Z,68.57
2019-01-25T02:13:16.500Z,68.26
2019-01-25T02:18:22.395Z,68.42
2019-01-25T02:23:28.862Z,68.27
2019-01-25T02:28:34.708Z,67.85
2019-01-25T02:33:40.752Z,68.09
2019-01-25T02:38:46.507Z,68.05
2019-01-25T02:43:52.254Z,68.14
2019-01-25T02:48:57.954Z,68.07
2019-01-25T02:54:03.758Z,68.04
2019-01-25T02:59:09.478Z,68.25
2019-01-25T03:04:15.259Z,68.08
2019-01-25T03:09:21.455Z,68.12
2019-01-25T03:14:27.215Z,68.52
2019-01-25T03:19:32.972Z,68.49
2019-01-25T03:24:39.754Z,68.12
2019-01-25T03:29:45.444Z,67.92
2019-01-25T03:34:51.302Z,67.13
2019-01-25T03:39:56.976Z,67.50
2019-01-25T03:45:02.827Z,67.47
2019-01-25T03:50:12.158Z,67.35
2019-01-25T03:55:17.891Z,67.00
2019-01-25T04:00:25.835Z,67.04
2019-01-25T04:05:31.638Z,66.84
2019-01-25T04:10:37.750Z,66.43
2019-01-25T04:15:43.810Z,66.54
2019-01-25T04:20:49.577Z,66.58
2019-01-25T04:25:55.284Z,66.42
2019-01-25T04:31:01.364Z,66.47
2019-01-25T04:36:07.257Z,66.60
2019-01-25T04:41:12.983Z,66.54
2019-01-25T04:46:19.252Z,66.79
2019-01-25T04:51:25.038Z,66.58
2019-01-25T04:56:34.793Z,67.61
2019-01-25T05:01:40.770Z,67.34
2019-01-25T05:06:46.688Z,67.06
2019-01-25T05:11:52.492Z,67.34
2019-01-25T05:16:58.238Z,67.78
2019-01-25T05:22:05.132Z,67.71
2019-01-25T05:27:10.819Z,67.38
2019-01-25T05:32:16.530Z,67.46
2019-01-25T05:37:22.299Z,67.47
2019-01-25T05:42:27.978Z,67.31
2019-01-25T05:47:33.686Z,67.51
2019-01-25T05:52:39.570Z,67.32
2019-01-25T05:57:45.720Z,67.79
2019-01-25T06:02:51.541Z,67.39
2019-01-25T06:07:57.406Z,67.72
2019-01-25T06:13:03.542Z,67.89
2019-01-25T06:18:09.406Z,67.58
2019-01-25T06:23:15.440Z,67.78
2019-01-25T06:28:21.470Z,67.56
2019-01-25T06:33:27.494Z,67.03
2019-01-25T06:38:33.596Z,67.24
2019-01-25T06:43:39.331Z,67.07
2019-01-25T06:48:45.032Z,66.65
2019-01-25T06:53:50.803Z,66.31
2019-01-25T06:58:58.150Z,66.02
2019-01-25T07:04:05.262Z,65.50
2019-01-25T07:09:10.955Z,65.05
2019-01-25T07:14:17.184Z,65.07
2019-01-25T07:19:23.092Z,64.66
2019-01-25T07:24:29.264Z,64.62
2019-01-25T07:29:34.997Z,64.61
2019-01-25T07:34:40.825Z,64.18
2019-01-25T07:39:46.922Z,63.59
2019-01-25T07:44:52.903Z,64.21
2019-01-25T07:49:58.666Z,64.40
2019-01-25T07:55:06.599Z,64.14
2019-01-25T08:00:16.954Z,63.93
2019-01-25T08:05:23.059Z,63.82
2019-01-25T08:10:28.737Z,62.58
2019-01-25T08:15:34.898Z,62.86
2019-01-25T08:20:41.120Z,61.97
2019-01-25T08:25:47.119Z,61.84
2019-01-25T08:30:53.371Z,61.45
2019-01-25T08:35:59.659Z,61.06
2019-01-25T08:41:05.815Z,61.41
2019-01-25T08:46:11.909Z,60.62
2019-01-25T08:51:17.906Z,60.77
2019-01-25T08:56:23.884Z,61.01
2019-01-25T09:01:29.963Z,60.88
2019-01-25T09:06:35.689Z,60.27
2019-01-25T09:11:41.425Z,61.15
2019-01-25T09:16:47.504Z,60.70
2019-01-25T09:21:53.480Z,60.47
2019-01-25T09:27:00.547Z,60.75
2019-01-25T09:32:06.317Z,60.69
2019-01-25T09:37:12.079Z,60.31
2019-01-25T09:42:19.276Z,60.50
2019-01-25T09:47:25.256Z,60.38
2019-01-25T09:52:30.945Z,59.86
2019-01-25T09:57:36.969Z,59.60
2019-01-25T10:02:43.195Z,59.22
2019-01-25T10:07:49.249Z,58.88
2019-01-25T10:12:55.013Z,59.29
2019-01-25T10:18:00.905Z,58.80
2019-01-25T10:23:06.823Z,58.27
2019-01-25T10:28:12.577Z,58.91
2019-01-25T10:33:18.358Z,58.12
2019-01-25T10:38:24.123Z,59.09
2019-01-25T10:43:30.034Z,59.52
2019-01-25T10:48:35.722Z,59.97
2019-01-25T10:53:41.447Z,60.26
2019-01-25T10:58:47.206Z,60.97
2019-01-25T11:03:54.521Z,61.17
2019-01-25T11:09:00.413Z,61.99
2019-01-25T11:14:06.510Z,62.34
2019-01-25T11:19:12.682Z,62.36
2019-01-25T11:24:18.681Z,62.24
2019-01-25T11:29:24.603Z,61.50
2019-01-25T11:34:33.083Z,61.41
2019-01-25T11:39:37.849Z,61.88
2019-01-25T11:44:43.921Z,61.46
2019-01-25T11:49:49.886Z,61.43
2019-01-25T11:54:55.912Z,62.30
2019-01-25T12:00:01.954Z,62.58
2019-01-25T12:05:10.333Z,62.61
2019-01-25T12:10:19.510Z,63.91
2019-01-25T12:15:25.431Z,63.22
2019-01-25T12:20:33.446Z,63.67
2019-01-25T12:25:39.570Z,63.50
2019-01-25T12:30:45.761Z,64.46
2019-01-25T12:35:51.737Z,63.82
2019-01-25T12:40:57.713Z,63.15
2019-01-25T12:46:03.795Z,63.39
2019-01-25T12:51:14.137Z,63.67
2019-01-25T12:56:19.929Z,63.54
2019-01-25T13:01:25.674Z,64.62
2019-01-25T13:06:31.643Z,64.44
2019-01-25T13:11:37.549Z,64.75
2019-01-25T13:16:43.309Z,65.50
2019-01-25T13:21:50.821Z,64.79
2019-01-25T13:26:56.633Z,65.30
2019-01-25T13:32:02.353Z,65.65
2019-01-25T13:37:08.311Z,66.27
2019-01-25T13:42:14.210Z,66.34
2019-01-25T13:47:19.932Z,65.90
2019-01-25T13:52:25.608Z,65.98
2019-01-25T13:57:31.575Z,66.10
2019-01-25T14:02:37.585Z,65.66
2019-01-25T14:07:43.542Z,66.31
2019-01-25T14:12:49.825Z,66.00
2019-01-25T14:17:55.858Z,66.13
2019-01-25T14:23:01.860Z,66.40
2019-01-25T14:28:07.694Z,66.42
2019-01-25T14:33:13.818Z,67.13
2019-01-25T14:38:19.685Z,66.65
2019-01-25T14:43:25.492Z,67.34
2019-01-25T14:48:31.299Z,67.33
2019-01-25T14:53:37.284Z,67.67
2019-01-25T14:58:43.030Z,67.37
2019-01-25T15:03:49.093Z,68.10
2019-01-25T15:08:55.277Z,68.03
2019-01-25T15:14:02.671Z,67.75
2019-01-25T15:19:08.872Z,67.87
2019-01-25T15:24:15.510Z,68.24
2019-01-25T15:29:21.729Z,68.54
2019-01-25T15:34:27.629Z,68.29
2019-01-25T15:39:33.622Z,68.60
2019-01-25T15:44:40.025Z,68.13
2019-01-25T15:49:45.971Z,68.60
2019-01-25T15:54:51.750Z,68.25
2019-01-25T15:59:58.426Z,68.34
2019-01-25T16:05:09.574Z,68.01
2019-01-25T16:10:17.449Z,68.55
2019-01-25T16:15:25.795Z,67.85
2019-01-25T16:20:31.512Z,66.43
2019-01-25T16:25:37.493Z,67.32
2019-01-25T16:30:43.707Z,67.26
2019-01-25T16:35:49.521Z,67.15
2019-01-25T16:40:55.677Z,66.97
2019-01-25T16:46:01.850Z,67.35
2019-01-25T16:51:07.736Z,67.27
2019-01-25T16:56:13.620Z,67.42
2019-01-25T17:01:19.463Z,67.18
2019-01-25T17:06:25.192Z,67.50
2019-01-25T17:11:30.969Z,67.59
2019-01-25T17:16:36.703Z,67.62
2019-01-25T17:21:42.521Z,67.41
2019-01-25T17:26:48.647Z,67.49
2019-01-25T17:31:54.297Z,67.30
2019-01-25T17:37:00.141Z,67.26
2019-01-25T17:42:05.970Z,67.20
2019-01-25T17:47:11.746Z,66.73
2019-01-25T17:52:17.608Z,66.51
2019-01-25T17:57:23.346Z,67.01
2019-01-25T18:02:30.226Z,66.84
2019-01-25T18:07:35.984Z,66.51
2019-01-25T18:12:41.751Z,66.73
2019-01-25T18:17:47.547Z,66.63
2019-01-25T18:22:53.704Z,67.22
2019-01-25T18:28:04.779Z,67.06
2019-01-25T18:33:10.790Z,66.99
2019-01-25T18:38:16.675Z,66.60
2019-01-25T18:43:22.548Z,67.07
2019-01-25T18:48:29.456Z,66.78
2019-01-25T18:53:35.356Z,67.04
2019-01-25T18:58:41.166Z,66.65
2019-01-25T19:03:47.128Z,66.78
2019-01-25T19:08:53.125Z,66.88
2019-01-25T19:13:58.926Z,66.96
2019-01-25T19:19:05.734Z,66.74
2019-01-25T19:24:11.888Z,66.93
2019-01-25T19:29:18.050Z,66.99
2019-01-25T19:34:23.851Z,67.12
2019-01-25T19:39:29.640Z,67.21
2019-01-25T19:44:35.889Z,67.38
2019-01-25T19:49:41.875Z,66.75
2019-01-25T19:54:47.902Z,66.69
2019-01-25T19:59:53.832Z,67.11
2019-01-25T20:05:01.193Z,67.38
2019-01-25T20:10:11.196Z,67.98
2019-01-25T20:15:20.497Z,67.95
2019-01-25T20:20:29.576Z,67.90
2019-01-25T20:25:35.863Z,68.19
2019-01-25T20:30:49.426Z,68.09
2019-01-25T20:35:49.821Z,68.08
2019-01-25T20:40:55.911Z,67.62
2019-01-25T20:46:02.076Z,67.89
2019-01-25T20:51:07.892Z,68.08
2019-01-25T20:56:14.057Z,68.18
2019-01-25T21:01:22.616Z,68.18
2019-01-25T21:06:28.393Z,68.22
2019-01-25T21:11:34.115Z,68.93
2019-01-25T21:16:40.133Z,69.14
2019-01-25T21:21:45.962Z,69.41
2019-01-25T21:26:51.690Z,69.68
2019-01-25T21:31:57.500Z,70.20
2019-01-25T21:37:03.480Z,70.35
2019-01-25T21:42:09.400Z,70.52
2019-01-25T21:47:15.358Z,70.75
2019-01-25T21:52:21.360Z,70.75
2019-01-25T21:57:27.112Z,70.78
2019-01-25T22:02:33.024Z,70.61
2019-01-25T22:07:38.776Z,70.75
2019-01-25T22:12:44.468Z,70.87
2019-01-25T22:17:50.292Z,70.86
2019-01-25T22:22:55.984Z,71.07
2019-01-25T22:28:01.739Z,71.00
2019-01-25T22:33:07.403Z,71.02
2019-01-25T22:38:13.164Z,71.19
2019-01-25T22:43:19.039Z,71.24
2019-01-25T22:48:24.736Z,71.63
2019-01-25T22:53:30.474Z,71.62
2019-01-25T22:58:36.172Z,71.86
2019-01-25T23:03:45.319Z,72.01
2019-01-25T23:08:51.085Z,72.20
2019-01-25T23:13:57.229Z,72.60
2019-01-25T23:19:03.054Z,72.83
2019-01-25T23:24:09.113Z,73.12
2019-01-25T23:29:14.997Z,73.34
2019-01-25T23:34:21.049Z,73.35
2019-01-25T23:39:26.948Z,73.39
2019-01-25T23:44:32.637Z,73.75
2019-01-25T23:49:38.370Z,73.78
2019-01-25T23:54:44.060Z,73.87
2019-01-25T23:59:50.578Z,74.08
